sensor_id;sensor_type;location;lat;lon;timestamp;P1;durP1;ratioP1;P2;durP2;ratioP2
18526;SDS011;9393;42.158;24.748;2023-02-15T00:02:55;11.90;;;7.17;;
18526;SDS011;9393;42.158;24.748;2023-02-15T00:05:58;21.80;;;9.70;;
18526;SDS011;9393;42.158;24.748;2023-02-15T00:09:03;17.87;;;11.40;;
18526;SDS011;9393;42.158;24.748;2023-02-15T00:12:07;15.97;;;9.17;;
18526;SDS011;9393;42.158;24.748;2023-02-15T00:15:13;18.73;;;10.27;;
18526;SDS011;9393;42.158;24.748;2023-02-15T00:18:17;22.33;;;13.10;;
18526;SDS011;9393;42.158;24.748;2023-02-15T00:21:21;18.77;;;12.03;;
18526;SDS011;9393;42.158;24.748;2023-02-15T00:24:24;22.20;;;12.00;;
18526;SDS011;9393;42.158;24.748;2023-02-15T00:27:28;20.37;;;12.43;;
18526;SDS011;9393;42.158;24.748;2023-02-15T00:30:34;21.57;;;13.43;;
18526;SDS011;9393;42.158;24.748;2023-02-15T00:33:38;21.67;;;11.43;;
18526;SDS011;9393;42.158;24.748;2023-02-15T00:36:42;18.60;;;10.20;;
18526;SDS011;9393;42.158;24.748;2023-02-15T00:39:48;22.07;;;13.27;;
18526;SDS011;9393;42.158;24.748;2023-02-15T00:42:52;16.47;;;10.33;;
18526;SDS011;9393;42.158;24.748;2023-02-15T00:45:57;25.03;;;13.97;;
18526;SDS011;9393;42.158;24.748;2023-02-15T00:49:02;22.23;;;13.97;;
18526;SDS011;9393;42.158;24.748;2023-02-15T00:52:06;18.23;;;11.80;;
18526;SDS011;9393;42.158;24.748;2023-02-15T00:55:10;20.57;;;12.67;;
18526;SDS011;9393;42.158;24.748;2023-02-15T00:58:13;18.50;;;10.27;;
18526;SDS011;9393;42.158;24.748;2023-02-15T01:01:20;21.13;;;11.90;;
18526;SDS011;9393;42.158;24.748;2023-02-15T01:04:25;22.87;;;12.13;;
18526;SDS011;9393;42.158;24.748;2023-02-15T01:07:31;21.30;;;12.93;;
18526;SDS011;9393;42.158;24.748;2023-02-15T01:10:35;15.37;;;9.23;;
18526;SDS011;9393;42.158;24.748;2023-02-15T01:13:39;21.93;;;11.63;;
18526;SDS011;9393;42.158;24.748;2023-02-15T01:16:44;20.67;;;10.20;;
18526;SDS011;9393;42.158;24.748;2023-02-15T01:19:48;21.63;;;11.63;;
18526;SDS011;9393;42.158;24.748;2023-02-15T01:22:53;18.70;;;11.07;;
18526;SDS011;9393;42.158;24.748;2023-02-15T01:26:01;17.50;;;9.43;;
18526;SDS011;9393;42.158;24.748;2023-02-15T01:29:05;21.57;;;12.23;;
18526;SDS011;9393;42.158;24.748;2023-02-15T01:32:10;20.37;;;11.13;;
18526;SDS011;9393;42.158;24.748;2023-02-15T01:35:16;24.47;;;13.97;;
18526;SDS011;9393;42.158;24.748;2023-02-15T01:38:20;22.13;;;12.73;;
18526;SDS011;9393;42.158;24.748;2023-02-15T01:41:24;23.57;;;13.80;;
18526;SDS011;9393;42.158;24.748;2023-02-15T01:44:48;27.27;;;14.70;;
18526;SDS011;9393;42.158;24.748;2023-02-15T01:47:56;21.30;;;13.37;;
18526;SDS011;9393;42.158;24.748;2023-02-15T01:51:03;19.50;;;11.70;;
18526;SDS011;9393;42.158;24.748;2023-02-15T01:54:09;21.33;;;13.70;;
18526;SDS011;9393;42.158;24.748;2023-02-15T01:57:19;21.90;;;12.57;;
18526;SDS011;9393;42.158;24.748;2023-02-15T02:00:27;24.73;;;13.97;;
18526;SDS011;9393;42.158;24.748;2023-02-15T02:03:36;25.50;;;14.23;;
18526;SDS011;9393;42.158;24.748;2023-02-15T02:06:46;18.43;;;10.57;;
18526;SDS011;9393;42.158;24.748;2023-02-15T02:09:53;20.67;;;12.57;;
18526;SDS011;9393;42.158;24.748;2023-02-15T02:12:58;23.63;;;13.90;;
18526;SDS011;9393;42.158;24.748;2023-02-15T02:16:08;23.50;;;14.27;;
18526;SDS011;9393;42.158;24.748;2023-02-15T02:23:02;23.67;;;14.37;;
18526;SDS011;9393;42.158;24.748;2023-02-15T02:30:19;26.37;;;14.13;;
18526;SDS011;9393;42.158;24.748;2023-02-15T02:33:44;23.00;;;12.73;;
18526;SDS011;9393;42.158;24.748;2023-02-15T02:36:57;26.93;;;14.67;;
18526;SDS011;9393;42.158;24.748;2023-02-15T02:40:08;22.87;;;14.23;;
18526;SDS011;9393;42.158;24.748;2023-02-15T02:43:18;15.63;;;9.33;;
18526;SDS011;9393;42.158;24.748;2023-02-15T02:46:30;23.60;;;13.23;;
18526;SDS011;9393;42.158;24.748;2023-02-15T02:49:41;21.13;;;11.60;;
18526;SDS011;9393;42.158;24.748;2023-02-15T02:52:47;18.33;;;11.27;;
18526;SDS011;9393;42.158;24.748;2023-02-15T02:55:53;21.83;;;12.70;;
18526;SDS011;9393;42.158;24.748;2023-02-15T02:59:01;21.07;;;12.80;;
18526;SDS011;9393;42.158;24.748;2023-02-15T03:02:11;23.17;;;10.20;;
18526;SDS011;9393;42.158;24.748;2023-02-15T03:05:22;22.43;;;13.20;;
18526;SDS011;9393;42.158;24.748;2023-02-15T03:08:31;24.50;;;13.63;;
18526;SDS011;9393;42.158;24.748;2023-02-15T03:11:38;23.87;;;14.43;;
18526;SDS011;9393;42.158;24.748;2023-02-15T03:14:43;28.30;;;14.07;;
18526;SDS011;9393;42.158;24.748;2023-02-15T03:17:51;23.53;;;13.93;;
18526;SDS011;9393;42.158;24.748;2023-02-15T03:21:00;23.50;;;14.23;;
18526;SDS011;9393;42.158;24.748;2023-02-15T03:24:07;23.30;;;13.77;;
18526;SDS011;9393;42.158;24.748;2023-02-15T03:27:18;26.10;;;15.27;;
18526;SDS011;9393;42.158;24.748;2023-02-15T03:30:26;23.93;;;13.50;;
18526;SDS011;9393;42.158;24.748;2023-02-15T03:33:33;25.70;;;15.17;;
18526;SDS011;9393;42.158;24.748;2023-02-15T03:36:43;26.27;;;14.83;;
18526;SDS011;9393;42.158;24.748;2023-02-15T03:39:51;26.60;;;15.60;;
18526;SDS011;9393;42.158;24.748;2023-02-15T03:42:59;25.73;;;15.23;;
18526;SDS011;9393;42.158;24.748;2023-02-15T03:46:08;22.77;;;13.13;;
18526;SDS011;9393;42.158;24.748;2023-02-15T03:49:20;26.53;;;15.07;;
18526;SDS011;9393;42.158;24.748;2023-02-15T03:52:29;22.03;;;13.90;;
18526;SDS011;9393;42.158;24.748;2023-02-15T03:55:35;24.40;;;13.07;;
18526;SDS011;9393;42.158;24.748;2023-02-15T03:58:39;24.57;;;14.63;;
18526;SDS011;9393;42.158;24.748;2023-02-15T04:02:03;23.70;;;13.77;;
18526;SDS011;9393;42.158;24.748;2023-02-15T04:05:16;28.83;;;16.37;;
18526;SDS011;9393;42.158;24.748;2023-02-15T04:08:21;27.73;;;15.00;;
18526;SDS011;9393;42.158;24.748;2023-02-15T04:11:45;26.20;;;14.87;;
18526;SDS011;9393;42.158;24.748;2023-02-15T04:14:48;28.60;;;14.90;;
18526;SDS011;9393;42.158;24.748;2023-02-15T04:18:09;22.53;;;12.67;;
18526;SDS011;9393;42.158;24.748;2023-02-15T04:21:13;18.60;;;11.47;;
18526;SDS011;9393;42.158;24.748;2023-02-15T04:24:36;23.07;;;14.03;;
18526;SDS011;9393;42.158;24.748;2023-02-15T04:27:57;24.20;;;14.13;;
18526;SDS011;9393;42.158;24.748;2023-02-15T04:31:01;23.77;;;14.70;;
18526;SDS011;9393;42.158;24.748;2023-02-15T04:34:04;24.20;;;13.87;;
18526;SDS011;9393;42.158;24.748;2023-02-15T04:37:08;24.47;;;13.90;;
18526;SDS011;9393;42.158;24.748;2023-02-15T04:40:14;28.13;;;13.70;;
18526;SDS011;9393;42.158;24.748;2023-02-15T04:43:20;23.27;;;13.50;;
18526;SDS011;9393;42.158;24.748;2023-02-15T04:46:24;26.27;;;14.73;;
18526;SDS011;9393;42.158;24.748;2023-02-15T04:49:28;22.17;;;13.27;;
18526;SDS011;9393;42.158;24.748;2023-02-15T04:52:31;22.97;;;14.00;;
18526;SDS011;9393;42.158;24.748;2023-02-15T04:55:36;24.30;;;14.87;;
18526;SDS011;9393;42.158;24.748;2023-02-15T04:58:40;25.37;;;15.20;;
18526;SDS011;9393;42.158;24.748;2023-02-15T05:01:43;28.17;;;16.10;;
18526;SDS011;9393;42.158;24.748;2023-02-15T05:04:47;23.27;;;14.53;;
18526;SDS011;9393;42.158;24.748;2023-02-15T05:07:51;25.33;;;15.10;;
18526;SDS011;9393;42.158;24.748;2023-02-15T05:10:56;29.40;;;16.17;;
18526;SDS011;9393;42.158;24.748;2023-02-15T05:14:00;21.97;;;9.97;;
18526;SDS011;9393;42.158;24.748;2023-02-15T05:17:04;23.03;;;13.37;;
18526;SDS011;9393;42.158;24.748;2023-02-15T05:20:08;22.73;;;13.27;;
18526;SDS011;9393;42.158;24.748;2023-02-15T05:23:12;23.37;;;12.60;;
18526;SDS011;9393;42.158;24.748;2023-02-15T05:26:18;24.83;;;13.83;;
18526;SDS011;9393;42.158;24.748;2023-02-15T05:29:40;23.77;;;13.27;;
18526;SDS011;9393;42.158;24.748;2023-02-15T05:32:43;27.00;;;14.03;;
18526;SDS011;9393;42.158;24.748;2023-02-15T05:35:47;23.57;;;13.83;;
18526;SDS011;9393;42.158;24.748;2023-02-15T05:38:51;21.87;;;13.73;;
18526;SDS011;9393;42.158;24.748;2023-02-15T05:41:59;25.23;;;13.53;;
18526;SDS011;9393;42.158;24.748;2023-02-15T05:45:03;31.37;;;14.47;;
18526;SDS011;9393;42.158;24.748;2023-02-15T05:48:08;24.20;;;14.93;;
18526;SDS011;9393;42.158;24.748;2023-02-15T05:51:12;27.10;;;15.37;;
18526;SDS011;9393;42.158;24.748;2023-02-15T05:54:17;24.43;;;13.97;;
18526;SDS011;9393;42.158;24.748;2023-02-15T05:57:22;24.27;;;14.43;;
18526;SDS011;9393;42.158;24.748;2023-02-15T06:00:26;24.67;;;14.70;;
18526;SDS011;9393;42.158;24.748;2023-02-15T06:03:29;25.43;;;12.37;;
18526;SDS011;9393;42.158;24.748;2023-02-15T06:06:33;22.23;;;11.87;;
18526;SDS011;9393;42.158;24.748;2023-02-15T06:09:37;27.83;;;15.30;;
18526;SDS011;9393;42.158;24.748;2023-02-15T06:12:43;19.40;;;10.30;;
18526;SDS011;9393;42.158;24.748;2023-02-15T06:15:47;24.60;;;14.60;;
18526;SDS011;9393;42.158;24.748;2023-02-15T06:18:50;25.60;;;15.07;;
18526;SDS011;9393;42.158;24.748;2023-02-15T06:21:54;23.80;;;14.47;;
18526;SDS011;9393;42.158;24.748;2023-02-15T06:24:58;27.13;;;15.67;;
18526;SDS011;9393;42.158;24.748;2023-02-15T06:28:03;28.87;;;15.93;;
18526;SDS011;9393;42.158;24.748;2023-02-15T06:31:07;27.37;;;14.33;;
18526;SDS011;9393;42.158;24.748;2023-02-15T06:34:12;26.90;;;15.43;;
18526;SDS011;9393;42.158;24.748;2023-02-15T06:37:15;31.70;;;16.33;;
18526;SDS011;9393;42.158;24.748;2023-02-15T06:40:19;22.97;;;14.63;;
18526;SDS011;9393;42.158;24.748;2023-02-15T06:43:25;23.37;;;13.43;;
18526;SDS011;9393;42.158;24.748;2023-02-15T06:46:28;24.00;;;13.40;;
18526;SDS011;9393;42.158;24.748;2023-02-15T06:49:32;26.27;;;15.33;;
18526;SDS011;9393;42.158;24.748;2023-02-15T06:52:36;26.90;;;14.70;;
18526;SDS011;9393;42.158;24.748;2023-02-15T06:55:40;27.73;;;14.27;;
18526;SDS011;9393;42.158;24.748;2023-02-15T06:58:45;19.40;;;10.63;;
18526;SDS011;9393;42.158;24.748;2023-02-15T07:01:51;25.47;;;16.23;;
18526;SDS011;9393;42.158;24.748;2023-02-15T07:04:55;26.83;;;11.50;;
18526;SDS011;9393;42.158;24.748;2023-02-15T07:07:58;24.40;;;14.90;;
18526;SDS011;9393;42.158;24.748;2023-02-15T07:11:02;28.03;;;16.17;;
18526;SDS011;9393;42.158;24.748;2023-02-15T07:14:22;23.27;;;13.10;;
18526;SDS011;9393;42.158;24.748;2023-02-15T07:17:29;20.17;;;12.90;;
18526;SDS011;9393;42.158;24.748;2023-02-15T07:20:36;22.43;;;14.57;;
18526;SDS011;9393;42.158;24.748;2023-02-15T07:23:43;23.07;;;11.93;;
18526;SDS011;9393;42.158;24.748;2023-02-15T07:26:47;27.83;;;15.60;;
18526;SDS011;9393;42.158;24.748;2023-02-15T07:29:52;27.40;;;14.33;;
18526;SDS011;9393;42.158;24.748;2023-02-15T07:32:56;25.63;;;15.60;;
18526;SDS011;9393;42.158;24.748;2023-02-15T07:36:18;25.20;;;14.30;;
18526;SDS011;9393;42.158;24.748;2023-02-15T07:39:21;29.53;;;15.97;;
18526;SDS011;9393;42.158;24.748;2023-02-15T07:42:25;28.10;;;16.60;;
18526;SDS011;9393;42.158;24.748;2023-02-15T07:45:31;21.17;;;10.53;;
18526;SDS011;9393;42.158;24.748;2023-02-15T07:48:35;25.50;;;15.73;;
18526;SDS011;9393;42.158;24.748;2023-02-15T07:51:40;26.20;;;13.30;;
18526;SDS011;9393;42.158;24.748;2023-02-15T07:54:43;21.63;;;13.97;;
18526;SDS011;9393;42.158;24.748;2023-02-15T07:57:48;23.90;;;15.93;;
18526;SDS011;9393;42.158;24.748;2023-02-15T08:00:54;26.47;;;15.37;;
18526;SDS011;9393;42.158;24.748;2023-02-15T08:04:03;24.33;;;15.03;;
18526;SDS011;9393;42.158;24.748;2023-02-15T08:07:09;25.37;;;15.43;;
18526;SDS011;9393;42.158;24.748;2023-02-15T08:10:13;21.80;;;14.57;;
18526;SDS011;9393;42.158;24.748;2023-02-15T08:13:38;23.83;;;14.67;;
18526;SDS011;9393;42.158;24.748;2023-02-15T08:16:58;24.43;;;14.57;;
18526;SDS011;9393;42.158;24.748;2023-02-15T08:20:04;25.93;;;15.47;;
18526;SDS011;9393;42.158;24.748;2023-02-15T08:23:09;24.03;;;15.37;;
18526;SDS011;9393;42.158;24.748;2023-02-15T08:26:13;28.50;;;16.17;;
18526;SDS011;9393;42.158;24.748;2023-02-15T08:29:19;25.43;;;15.73;;
18526;SDS011;9393;42.158;24.748;2023-02-15T08:32:26;26.33;;;14.00;;
18526;SDS011;9393;42.158;24.748;2023-02-15T08:35:29;30.93;;;16.93;;
18526;SDS011;9393;42.158;24.748;2023-02-15T08:38:33;27.33;;;15.90;;
18526;SDS011;9393;42.158;24.748;2023-02-15T08:41:37;21.63;;;13.87;;
18526;SDS011;9393;42.158;24.748;2023-02-15T08:44:42;27.17;;;16.70;;
18526;SDS011;9393;42.158;24.748;2023-02-15T08:47:48;23.67;;;16.00;;
18526;SDS011;9393;42.158;24.748;2023-02-15T08:50:52;22.77;;;14.83;;
18526;SDS011;9393;42.158;24.748;2023-02-15T08:53:57;21.23;;;15.30;;
18526;SDS011;9393;42.158;24.748;2023-02-15T08:57:01;33.23;;;15.77;;
18526;SDS011;9393;42.158;24.748;2023-02-15T09:00:06;25.00;;;15.67;;
18526;SDS011;9393;42.158;24.748;2023-02-15T09:03:12;22.37;;;15.37;;
18526;SDS011;9393;42.158;24.748;2023-02-15T09:06:16;23.30;;;15.90;;
18526;SDS011;9393;42.158;24.748;2023-02-15T09:09:20;25.33;;;16.50;;
18526;SDS011;9393;42.158;24.748;2023-02-15T09:12:24;25.93;;;16.07;;
18526;SDS011;9393;42.158;24.748;2023-02-15T09:15:28;27.10;;;16.53;;
18526;SDS011;9393;42.158;24.748;2023-02-15T09:18:34;25.50;;;15.60;;
18526;SDS011;9393;42.158;24.748;2023-02-15T09:21:39;22.23;;;14.33;;
18526;SDS011;9393;42.158;24.748;2023-02-15T09:24:43;21.70;;;15.37;;
18526;SDS011;9393;42.158;24.748;2023-02-15T09:27:47;24.27;;;16.17;;
18526;SDS011;9393;42.158;24.748;2023-02-15T09:30:51;24.53;;;15.80;;
18526;SDS011;9393;42.158;24.748;2023-02-15T09:33:57;22.10;;;15.33;;
18526;SDS011;9393;42.158;24.748;2023-02-15T09:37:04;24.17;;;15.13;;
18526;SDS011;9393;42.158;24.748;2023-02-15T09:40:08;20.57;;;14.30;;
18526;SDS011;9393;42.158;24.748;2023-02-15T09:43:21;24.77;;;15.07;;
18526;SDS011;9393;42.158;24.748;2023-02-15T09:46:36;23.50;;;14.70;;
18526;SDS011;9393;42.158;24.748;2023-02-15T09:49:52;24.23;;;15.80;;
18526;SDS011;9393;42.158;24.748;2023-02-15T09:53:13;23.90;;;15.30;;
18526;SDS011;9393;42.158;24.748;2023-02-15T09:56:37;20.80;;;13.20;;
18526;SDS011;9393;42.158;24.748;2023-02-15T09:59:49;22.43;;;14.20;;
18526;SDS011;9393;42.158;24.748;2023-02-15T10:03:04;22.23;;;14.13;;
18526;SDS011;9393;42.158;24.748;2023-02-15T10:06:24;21.10;;;15.17;;
18526;SDS011;9393;42.158;24.748;2023-02-15T10:09:38;19.87;;;13.70;;
18526;SDS011;9393;42.158;24.748;2023-02-15T10:12:57;20.90;;;14.37;;
18526;SDS011;9393;42.158;24.748;2023-02-15T10:16:15;19.33;;;12.97;;
18526;SDS011;9393;42.158;24.748;2023-02-15T10:19:32;21.03;;;14.83;;
18526;SDS011;9393;42.158;24.748;2023-02-15T10:22:55;20.47;;;14.17;;
18526;SDS011;9393;42.158;24.748;2023-02-15T10:26:12;22.67;;;13.97;;
18526;SDS011;9393;42.158;24.748;2023-02-15T10:29:25;20.80;;;14.07;;
18526;SDS011;9393;42.158;24.748;2023-02-15T10:32:35;23.60;;;14.07;;
18526;SDS011;9393;42.158;24.748;2023-02-15T10:35:46;29.63;;;15.47;;
18526;SDS011;9393;42.158;24.748;2023-02-15T10:39:00;21.53;;;13.47;;
18526;SDS011;9393;42.158;24.748;2023-02-15T10:42:11;18.00;;;12.73;;
18526;SDS011;9393;42.158;24.748;2023-02-15T10:45:22;18.80;;;13.17;;
18526;SDS011;9393;42.158;24.748;2023-02-15T10:48:47;20.00;;;12.97;;
18526;SDS011;9393;42.158;24.748;2023-02-15T10:52:17;18.67;;;13.03;;
18526;SDS011;9393;42.158;24.748;2023-02-15T10:55:38;20.57;;;13.40;;
18526;SDS011;9393;42.158;24.748;2023-02-15T10:58:57;16.53;;;11.87;;
18526;SDS011;9393;42.158;24.748;2023-02-15T11:02:24;17.63;;;13.17;;
18526;SDS011;9393;42.158;24.748;2023-02-15T11:05:41;18.00;;;12.87;;
18526;SDS011;9393;42.158;24.748;2023-02-15T11:08:59;19.27;;;12.97;;
18526;SDS011;9393;42.158;24.748;2023-02-15T11:12:10;18.87;;;12.97;;
18526;SDS011;9393;42.158;24.748;2023-02-15T11:15:19;19.40;;;12.53;;
18526;SDS011;9393;42.158;24.748;2023-02-15T11:18:31;19.30;;;13.63;;
18526;SDS011;9393;42.158;24.748;2023-02-15T11:21:38;19.17;;;12.00;;
18526;SDS011;9393;42.158;24.748;2023-02-15T11:24:46;17.27;;;11.70;;
18526;SDS011;9393;42.158;24.748;2023-02-15T11:27:52;17.83;;;12.80;;
18526;SDS011;9393;42.158;24.748;2023-02-15T11:30:58;17.53;;;11.27;;
18526;SDS011;9393;42.158;24.748;2023-02-15T11:34:11;16.83;;;11.20;;
18526;SDS011;9393;42.158;24.748;2023-02-15T11:37:21;20.97;;;12.23;;
18526;SDS011;9393;42.158;24.748;2023-02-15T11:40:33;15.70;;;11.60;;
18526;SDS011;9393;42.158;24.748;2023-02-15T11:43:42;32.17;;;23.30;;
18526;SDS011;9393;42.158;24.748;2023-02-15T11:46:51;17.13;;;12.70;;
18526;SDS011;9393;42.158;24.748;2023-02-15T11:49:56;18.70;;;12.43;;
18526;SDS011;9393;42.158;24.748;2023-02-15T11:53:01;17.53;;;12.27;;
18526;SDS011;9393;42.158;24.748;2023-02-15T11:56:12;18.23;;;13.20;;
18526;SDS011;9393;42.158;24.748;2023-02-15T11:59:21;18.73;;;12.57;;
18526;SDS011;9393;42.158;24.748;2023-02-15T12:02:33;16.63;;;11.27;;
18526;SDS011;9393;42.158;24.748;2023-02-15T12:05:41;19.17;;;11.83;;
18526;SDS011;9393;42.158;24.748;2023-02-15T12:08:51;18.73;;;11.90;;
18526;SDS011;9393;42.158;24.748;2023-02-15T12:15:30;17.97;;;12.17;;
18526;SDS011;9393;42.158;24.748;2023-02-15T12:18:37;16.23;;;11.10;;
18526;SDS011;9393;42.158;24.748;2023-02-15T12:21:43;14.97;;;10.80;;
18526;SDS011;9393;42.158;24.748;2023-02-15T12:24:52;18.27;;;12.67;;
18526;SDS011;9393;42.158;24.748;2023-02-15T12:27:59;17.27;;;12.00;;
18526;SDS011;9393;42.158;24.748;2023-02-15T12:31:07;17.10;;;11.30;;
18526;SDS011;9393;42.158;24.748;2023-02-15T12:34:22;18.53;;;12.13;;
18526;SDS011;9393;42.158;24.748;2023-02-15T12:37:29;17.57;;;11.87;;
18526;SDS011;9393;42.158;24.748;2023-02-15T12:40:36;13.63;;;9.93;;
18526;SDS011;9393;42.158;24.748;2023-02-15T12:43:42;14.00;;;10.30;;
18526;SDS011;9393;42.158;24.748;2023-02-15T12:46:57;18.53;;;12.17;;
18526;SDS011;9393;42.158;24.748;2023-02-15T12:50:07;18.70;;;11.30;;
18526;SDS011;9393;42.158;24.748;2023-02-15T12:53:19;23.13;;;12.23;;
18526;SDS011;9393;42.158;24.748;2023-02-15T12:56:26;17.50;;;11.83;;
18526;SDS011;9393;42.158;24.748;2023-02-15T12:59:30;15.00;;;11.00;;
18526;SDS011;9393;42.158;24.748;2023-02-15T13:02:37;14.80;;;10.40;;
18526;SDS011;9393;42.158;24.748;2023-02-15T13:05:46;12.23;;;9.00;;
18526;SDS011;9393;42.158;24.748;2023-02-15T13:08:55;18.30;;;11.97;;
18526;SDS011;9393;42.158;24.748;2023-02-15T13:12:08;18.37;;;11.73;;
18526;SDS011;9393;42.158;24.748;2023-02-15T13:15:22;15.17;;;10.40;;
18526;SDS011;9393;42.158;24.748;2023-02-15T13:18:31;17.17;;;10.50;;
18526;SDS011;9393;42.158;24.748;2023-02-15T13:21:39;15.43;;;9.80;;
18526;SDS011;9393;42.158;24.748;2023-02-15T13:24:48;13.97;;;10.37;;
18526;SDS011;9393;42.158;24.748;2023-02-15T13:27:59;14.57;;;10.30;;
18526;SDS011;9393;42.158;24.748;2023-02-15T13:31:07;15.97;;;10.67;;
18526;SDS011;9393;42.158;24.748;2023-02-15T13:34:20;13.73;;;10.30;;
18526;SDS011;9393;42.158;24.748;2023-02-15T13:37:42;15.17;;;10.07;;
18526;SDS011;9393;42.158;24.748;2023-02-15T13:40:59;14.83;;;10.40;;
18526;SDS011;9393;42.158;24.748;2023-02-15T13:44:09;13.90;;;10.50;;
18526;SDS011;9393;42.158;24.748;2023-02-15T13:47:21;14.87;;;11.00;;
18526;SDS011;9393;42.158;24.748;2023-02-15T13:50:35;15.43;;;10.30;;
18526;SDS011;9393;42.158;24.748;2023-02-15T13:54:01;17.00;;;11.30;;
18526;SDS011;9393;42.158;24.748;2023-02-15T13:57:31;19.37;;;10.63;;
18526;SDS011;9393;42.158;24.748;2023-02-15T14:00:48;13.77;;;10.17;;
18526;SDS011;9393;42.158;24.748;2023-02-15T14:04:09;15.90;;;10.73;;
18526;SDS011;9393;42.158;24.748;2023-02-15T14:07:30;16.10;;;10.97;;
18526;SDS011;9393;42.158;24.748;2023-02-15T14:10:46;16.27;;;11.50;;
18526;SDS011;9393;42.158;24.748;2023-02-15T14:14:11;19.93;;;11.53;;
18526;SDS011;9393;42.158;24.748;2023-02-15T14:17:33;17.00;;;11.80;;
18526;SDS011;9393;42.158;24.748;2023-02-15T14:20:50;16.33;;;11.43;;
18526;SDS011;9393;42.158;24.748;2023-02-15T14:24:09;21.30;;;13.07;;
18526;SDS011;9393;42.158;24.748;2023-02-15T14:27:25;18.27;;;11.90;;
18526;SDS011;9393;42.158;24.748;2023-02-15T14:30:42;20.57;;;12.60;;
18526;SDS011;9393;42.158;24.748;2023-02-15T14:33:52;17.83;;;12.00;;
18526;SDS011;9393;42.158;24.748;2023-02-15T14:36:58;18.27;;;11.73;;
18526;SDS011;9393;42.158;24.748;2023-02-15T14:40:05;16.50;;;11.43;;
18526;SDS011;9393;42.158;24.748;2023-02-15T14:43:45;17.10;;;11.90;;
18526;SDS011;9393;42.158;24.748;2023-02-15T14:46:58;17.37;;;12.27;;
18526;SDS011;9393;42.158;24.748;2023-02-15T14:53:45;18.00;;;11.70;;
18526;SDS011;9393;42.158;24.748;2023-02-15T14:57:20;15.33;;;11.47;;
18526;SDS011;9393;42.158;24.748;2023-02-15T15:00:35;18.43;;;11.40;;
18526;SDS011;9393;42.158;24.748;2023-02-15T15:03:42;16.10;;;11.10;;
18526;SDS011;9393;42.158;24.748;2023-02-15T15:06:59;15.83;;;11.03;;
18526;SDS011;9393;42.158;24.748;2023-02-15T15:17:04;15.83;;;10.53;;
18526;SDS011;9393;42.158;24.748;2023-02-15T15:20:11;14.27;;;10.03;;
18526;SDS011;9393;42.158;24.748;2023-02-15T15:23:38;13.77;;;9.97;;
18526;SDS011;9393;42.158;24.748;2023-02-15T15:26:44;14.77;;;9.53;;
18526;SDS011;9393;42.158;24.748;2023-02-15T15:29:54;14.80;;;10.73;;
18526;SDS011;9393;42.158;24.748;2023-02-15T15:32:58;16.40;;;10.40;;
18526;SDS011;9393;42.158;24.748;2023-02-15T15:40:20;20.33;;;11.57;;
18526;SDS011;9393;42.158;24.748;2023-02-15T15:44:05;19.50;;;11.73;;
18526;SDS011;9393;42.158;24.748;2023-02-15T15:47:36;28.53;;;16.37;;
18526;SDS011;9393;42.158;24.748;2023-02-15T15:51:09;29.73;;;15.97;;
18526;SDS011;9393;42.158;24.748;2023-02-15T15:54:18;24.17;;;14.90;;
18526;SDS011;9393;42.158;24.748;2023-02-15T15:57:25;23.77;;;13.80;;
18526;SDS011;9393;42.158;24.748;2023-02-15T16:00:35;22.87;;;14.13;;
18526;SDS011;9393;42.158;24.748;2023-02-15T16:03:51;29.50;;;14.10;;
18526;SDS011;9393;42.158;24.748;2023-02-15T16:06:58;25.23;;;14.60;;
18526;SDS011;9393;42.158;24.748;2023-02-15T16:10:21;25.87;;;15.50;;
18526;SDS011;9393;42.158;24.748;2023-02-15T16:13:26;27.00;;;15.33;;
18526;SDS011;9393;42.158;24.748;2023-02-15T16:16:30;26.87;;;16.83;;
18526;SDS011;9393;42.158;24.748;2023-02-15T16:19:37;32.77;;;19.03;;
18526;SDS011;9393;42.158;24.748;2023-02-15T16:22:43;51.30;;;30.50;;
18526;SDS011;9393;42.158;24.748;2023-02-15T16:25:49;52.60;;;29.53;;
18526;SDS011;9393;42.158;24.748;2023-02-15T16:29:12;296.73;;;127.63;;
18526;SDS011;9393;42.158;24.748;2023-02-15T16:32:18;140.67;;;67.03;;
18526;SDS011;9393;42.158;24.748;2023-02-15T16:35:25;65.70;;;33.97;;
18526;SDS011;9393;42.158;24.748;2023-02-15T16:38:34;48.47;;;24.33;;
18526;SDS011;9393;42.158;24.748;2023-02-15T16:42:03;51.83;;;29.63;;
18526;SDS011;9393;42.158;24.748;2023-02-15T16:45:08;48.03;;;24.87;;
18526;SDS011;9393;42.158;24.748;2023-02-15T16:48:19;47.70;;;26.63;;
18526;SDS011;9393;42.158;24.748;2023-02-15T16:51:29;49.90;;;26.43;;
18526;SDS011;9393;42.158;24.748;2023-02-15T16:54:35;48.80;;;26.03;;
18526;SDS011;9393;42.158;24.748;2023-02-15T16:57:40;50.40;;;26.50;;
18526;SDS011;9393;42.158;24.748;2023-02-15T17:00:47;40.67;;;20.83;;
18526;SDS011;9393;42.158;24.748;2023-02-15T17:03:51;37.03;;;21.30;;
18526;SDS011;9393;42.158;24.748;2023-02-15T17:07:16;37.13;;;20.37;;
18526;SDS011;9393;42.158;24.748;2023-02-15T17:10:29;44.80;;;22.33;;
18526;SDS011;9393;42.158;24.748;2023-02-15T17:13:38;34.73;;;18.97;;
18526;SDS011;9393;42.158;24.748;2023-02-15T17:16:42;32.03;;;17.23;;
18526;SDS011;9393;42.158;24.748;2023-02-15T17:19:51;28.77;;;16.00;;
18526;SDS011;9393;42.158;24.748;2023-02-15T17:22:59;29.13;;;16.20;;
18526;SDS011;9393;42.158;24.748;2023-02-15T17:26:10;30.70;;;16.40;;
18526;SDS011;9393;42.158;24.748;2023-02-15T17:29:20;27.63;;;15.60;;
18526;SDS011;9393;42.158;24.748;2023-02-15T17:32:35;27.03;;;16.83;;
18526;SDS011;9393;42.158;24.748;2023-02-15T17:35:40;44.27;;;24.13;;
18526;SDS011;9393;42.158;24.748;2023-02-15T17:42:07;27.43;;;15.73;;
18526;SDS011;9393;42.158;24.748;2023-02-15T17:45:10;42.33;;;31.70;;
18526;SDS011;9393;42.158;24.748;2023-02-15T17:48:18;45.53;;;34.60;;
18526;SDS011;9393;42.158;24.748;2023-02-15T17:51:24;43.40;;;32.53;;
18526;SDS011;9393;42.158;24.748;2023-02-15T17:54:30;66.83;;;54.83;;
18526;SDS011;9393;42.158;24.748;2023-02-15T17:57:51;31.23;;;19.07;;
18526;SDS011;9393;42.158;24.748;2023-02-15T18:00:55;36.60;;;21.10;;
18526;SDS011;9393;42.158;24.748;2023-02-15T18:04:19;45.97;;;22.23;;
18526;SDS011;9393;42.158;24.748;2023-02-15T18:07:41;40.77;;;22.37;;
18526;SDS011;9393;42.158;24.748;2023-02-15T18:11:04;32.97;;;19.27;;
18526;SDS011;9393;42.158;24.748;2023-02-15T18:14:25;33.10;;;21.20;;
18526;SDS011;9393;42.158;24.748;2023-02-15T18:17:29;37.07;;;20.63;;
18526;SDS011;9393;42.158;24.748;2023-02-15T18:20:36;40.23;;;21.40;;
18526;SDS011;9393;42.158;24.748;2023-02-15T18:23:42;38.40;;;20.63;;
18526;SDS011;9393;42.158;24.748;2023-02-15T18:26:48;32.10;;;18.93;;
18526;SDS011;9393;42.158;24.748;2023-02-15T18:29:52;34.43;;;20.47;;
18526;SDS011;9393;42.158;24.748;2023-02-15T18:32:56;35.60;;;19.27;;
18526;SDS011;9393;42.158;24.748;2023-02-15T18:36:02;32.40;;;19.17;;
18526;SDS011;9393;42.158;24.748;2023-02-15T18:39:09;30.83;;;19.10;;
18526;SDS011;9393;42.158;24.748;2023-02-15T18:42:28;34.93;;;19.50;;
18526;SDS011;9393;42.158;24.748;2023-02-15T18:45:35;47.87;;;32.40;;
18526;SDS011;9393;42.158;24.748;2023-02-15T18:48:40;36.10;;;24.47;;
18526;SDS011;9393;42.158;24.748;2023-02-15T18:51:47;35.90;;;22.07;;
18526;SDS011;9393;42.158;24.748;2023-02-15T18:54:52;40.67;;;25.33;;
18526;SDS011;9393;42.158;24.748;2023-02-15T18:57:59;35.63;;;21.57;;